Time;durP1;ratioP1;P1;durP2;ratioP2;P2;SDS_P1;SDS_P2;PMS_P1;PMS_P2;Temp;Humidity;BMP_temperature;BMP_pressure;BME280_temperature;BME280_humidity;BME280_pressure;Samples;Min_cycle;Max_cycle;Signal;HPM_P1;HPM_P2
2022/11/28 00:00:44;;;;;;;6.28;4.50;;;11.10;99.90;;;;;;5114971;28;20027;-47
2022/11/28 00:03:09;;;;;;;5.15;3.78;;;10.90;99.90;;;;;;5114691;28;20545;-47
2022/11/28 00:05:35;;;;;;;6.03;4.07;;;11.80;99.90;;;;;;5115119;28;20404;-47
2022/11/28 00:08:01;;;;;;;6.47;3.92;;;13.50;99.90;;;;;;5114148;28;20028;-47
2022/11/28 00:10:26;;;;;;;6.65;4.30;;;14.20;98.60;;;;;;5114393;28;20024;-47
2022/11/28 00:12:52;;;;;;;5.68;4.30;;;14.00;98.20;;;;;;5114527;28;20061;-50
2022/11/28 00:15:17;;;;;;;5.90;4.10;;;13.50;98.60;;;;;;5114464;28;20030;-47
2022/11/28 00:17:44;;;;;;;6.07;4.47;;;13.00;99.20;;;;;;5114359;28;20381;-46
2022/11/28 00:20:09;;;;;;;6.45;4.60;;;12.50;99.90;;;;;;5113918;28;20118;-47
2022/11/28 00:22:35;;;;;;;5.00;3.90;;;12.00;99.90;;;;;;5114766;28;20103;-45
2022/11/28 00:25:01;;;;;;;5.53;4.05;;;11.70;99.90;;;;;;5114119;28;20055;-48
2022/11/28 00:27:26;;;;;;;5.63;4.28;;;11.40;99.90;;;;;;5114207;28;20048;-47
2022/11/28 00:29:52;;;;;;;5.38;4.03;;;11.20;99.90;;;;;;5114105;28;20023;-47
2022/11/28 00:32:17;;;;;;;5.65;3.97;;;11.00;99.90;;;;;;5114364;28;20107;-45
2022/11/28 00:34:43;;;;;;;5.65;4.13;;;11.40;99.90;;;;;;5114109;28;20385;-47
2022/11/28 00:37:09;;;;;;;7.40;4.40;;;12.80;99.90;;;;;;5114083;28;20397;-48
2022/11/28 00:39:34;;;;;;;6.25;3.85;;;14.00;99.10;;;;;;5113324;28;20038;-47
2022/11/28 00:42:00;;;;;;;5.93;3.85;;;14.10;98.30;;;;;;5113164;28;20120;-47
2022/11/28 00:44:25;;;;;;;5.50;3.83;;;13.60;98.40;;;;;;5113866;28;20106;-47
2022/11/28 00:46:51;;;;;;;7.78;4.45;;;13.00;99.00;;;;;;5113816;28;20110;-49
2022/11/28 00:49:17;;;;;;;5.30;3.65;;;12.60;99.70;;;;;;5113696;28;20030;-47
2022/11/28 00:51:42;;;;;;;5.65;3.78;;;12.20;99.90;;;;;;5113813;28;20412;-47
2022/11/28 00:54:08;;;;;;;5.32;3.92;;;11.80;99.90;;;;;;5113629;28;20073;-47
2022/11/28 00:56:37;;;;;;;6.35;4.05;;;11.50;99.90;;;;;;5113949;28;20028;-47
2022/11/28 00:59:03;;;;;;;4.47;3.50;;;11.20;99.90;;;;;;5113128;28;20116;-47
2022/11/28 01:01:38;;;;;;;5.15;3.80;;;11.00;99.90;;;;;;5113596;28;20111;-47
2022/11/28 01:04:08;;;;;;;5.05;3.97;;;11.10;99.90;;;;;;5114258;28;20490;-47
2022/11/28 01:06:40;;;;;;;5.75;4.07;;;12.40;99.90;;;;;;5112011;28;20141;-48
2022/11/28 01:09:12;;;;;;;5.72;3.95;;;13.90;99.50;;;;;;5112865;28;20035;-47
2022/11/28 01:11:39;;;;;;;5.43;3.55;;;14.10;98.20;;;;;;5113511;28;20385;-47
2022/11/28 01:14:06;;;;;;;6.53;3.90;;;13.80;98.20;;;;;;5113381;28;20038;-47
2022/11/28 01:16:31;;;;;;;5.15;3.58;;;13.20;98.70;;;;;;5113264;28;20025;-47
2022/11/28 01:18:57;;;;;;;6.13;3.70;;;12.70;99.40;;;;;;5112677;28;20023;-47
2022/11/28 01:21:23;;;;;;;6.13;3.92;;;12.30;99.90;;;;;;5112990;28;20493;-49
2022/11/28 01:23:49;;;;;;;5.28;3.88;;;11.90;99.90;;;;;;5113135;28;20020;-50
2022/11/28 01:26:20;;;;;;;5.47;3.75;;;11.50;99.90;;;;;;5113091;28;20019;-47
2022/11/28 01:28:47;;;;;;;5.38;3.95;;;11.30;99.90;;;;;;5112636;28;20394;-47
2022/11/28 01:31:15;;;;;;;5.35;3.80;;;11.10;99.90;;;;;;5113049;28;20470;-47
2022/11/28 01:33:41;;;;;;;6.20;3.67;;;10.90;99.90;;;;;;5112817;28;20019;-47
2022/11/28 01:36:08;;;;;;;6.88;3.95;;;10.80;99.90;;;;;;5112282;28;20469;-47
2022/11/28 01:38:34;;;;;;;5.05;3.50;;;10.80;99.90;;;;;;5112761;27;20024;-49
2022/11/28 01:41:00;;;;;;;8.50;3.75;;;11.80;99.90;;;;;;5112727;28;20382;-47
2022/11/28 01:43:26;;;;;;;6.03;3.80;;;13.60;99.90;;;;;;5112757;28;20476;-47
2022/11/28 01:45:53;;;;;;;5.13;3.25;;;14.40;98.20;;;;;;5112719;28;20039;-48
2022/11/28 01:48:27;;;;;;;4.88;3.63;;;14.20;97.70;;;;;;5112106;28;20034;-46
2022/11/28 01:50:57;;;;;;;4.82;3.40;;;13.60;98.20;;;;;;5112705;28;20024;-47
2022/11/28 01:53:25;;;;;;;4.80;3.78;;;13.00;98.90;;;;;;5112854;28;20409;-47
2022/11/28 01:55:58;;;;;;;5.45;3.47;;;12.50;99.60;;;;;;5112416;28;20035;-49
2022/11/28 01:58:24;;;;;;;5.03;3.70;;;12.10;99.90;;;;;;5111949;28;20048;-47
2022/11/28 02:00:50;;;;;;;5.45;3.33;;;11.70;99.90;;;;;;5112714;28;20035;-49
2022/11/28 02:03:29;;;;;;;4.93;3.53;;;11.40;99.90;;;;;;5112693;28;20027;-49
2022/11/28 02:05:55;;;;;;;6.03;3.28;;;11.20;99.90;;;;;;5112145;28;20023;-50
2022/11/28 02:08:21;;;;;;;4.95;3.40;;;11.00;99.90;;;;;;5112039;28;20047;-47
2022/11/28 02:10:50;;;;;;;5.07;3.78;;;10.80;99.90;;;;;;5112215;28;20381;-47
2022/11/28 02:13:38;;;;;;;5.82;3.42;;;10.80;99.90;;;;;;5112190;28;20099;-47
2022/11/28 02:16:36;;;;;;;6.85;3.60;;;12.00;99.90;;;;;;5112090;28;20027;-47
2022/11/28 02:19:23;;;;;;;5.18;3.55;;;14.00;99.50;;;;;;5111586;28;20028;-47
2022/11/28 02:22:19;;;;;;;4.80;3.47;;;14.50;97.80;;;;;;5111959;28;20111;-50
2022/11/28 02:24:55;;;;;;;5.20;3.50;;;13.90;97.80;;;;;;5111924;28;20127;-47
2022/11/28 02:27:58;;;;;;;5.13;3.40;;;13.40;98.50;;;;;;5111841;28;20020;-45
2022/11/28 02:30:42;;;;;;;4.85;3.47;;;12.70;99.30;;;;;;5111842;28;20164;-47
2022/11/28 02:33:28;;;;;;;4.27;3.17;;;12.10;99.90;;;;;;5111845;28;20024;-48
2022/11/28 02:36:06;;;;;;;4.93;3.53;;;11.70;99.90;;;;;;5110887;28;20519;-49
2022/11/28 02:38:40;;;;;;;6.22;3.63;;;11.40;99.90;;;;;;5111285;28;20416;-47
2022/11/28 02:41:09;;;;;;;4.93;3.50;;;11.20;99.90;;;;;;5111677;28;20114;-48
2022/11/28 02:43:54;;;;;;;4.88;3.10;;;11.00;99.90;;;;;;5111924;28;20024;-47
2022/11/28 02:46:30;;;;;;;5.03;3.30;;;10.80;99.90;;;;;;5111578;28;20019;-47
2022/11/28 02:48:59;;;;;;;5.25;3.65;;;10.70;99.90;;;;;;5111138;28;20106;-47
2022/11/28 02:51:38;;;;;;;4.85;3.05;;;10.60;99.90;;;;;;5111463;28;20023;-48
2022/11/28 02:54:06;;;;;;;5.93;3.30;;;10.50;99.90;;;;;;5111630;28;20485;-47
2022/11/28 02:56:32;;;;;;;4.22;3.25;;;10.40;99.90;;;;;;5111572;28;20473;-47
2022/11/28 02:58:58;;;;;;;4.55;3.45;;;10.40;99.90;;;;;;5111397;28;20031;-45
2022/11/28 03:01:29;;;;;;;6.03;3.67;;;10.40;99.90;;;;;;5111387;28;20020;-47
2022/11/28 03:04:07;;;;;;;4.72;2.80;;;10.60;99.90;;;;;;5111636;28;20032;-49
2022/11/28 03:06:59;;;;;;;4.72;3.00;;;12.10;99.90;;;;;;5110840;28;20023;-45
2022/11/28 03:09:48;;;;;;;3.85;2.83;;;14.10;99.30;;;;;;5111066;28;20873;-49
2022/11/28 03:12:14;;;;;;;4.40;2.90;;;14.70;97.50;;;;;;5111304;28;20046;-47
2022/11/28 03:14:49;;;;;;;3.70;2.75;;;14.30;97.40;;;;;;5111387;28;20508;-47
2022/11/28 03:17:20;;;;;;;4.05;2.50;;;13.70;98.00;;;;;;5111129;28;20034;-47
2022/11/28 03:19:55;;;;;;;4.35;3.03;;;13.10;98.70;;;;;;5110840;28;20385;-47
2022/11/28 03:22:26;;;;;;;4.60;3.10;;;12.50;99.50;;;;;;5111219;28;20024;-47
2022/11/28 03:25:16;;;;;;;4.15;2.75;;;12.00;99.90;;;;;;5111299;28;20023;-47
2022/11/28 03:27:46;;;;;;;3.97;2.97;;;11.60;99.90;;;;;;5111422;28;20020;-47
2022/11/28 03:30:29;;;;;;;4.18;3.10;;;11.30;99.90;;;;;;5110819;28;20047;-49
2022/11/28 03:32:56;;;;;;;5.13;3.45;;;11.10;99.90;;;;;;5111140;28;20028;-47
2022/11/28 03:35:27;;;;;;;4.63;3.25;;;11.80;99.90;;;;;;5110257;28;20114;-48
2022/11/28 03:38:15;;;;;;;4.88;2.83;;;13.40;99.90;;;;;;5111216;28;20032;-55
2022/11/28 03:40:46;;;;;;;3.53;2.58;;;14.00;98.20;;;;;;5110933;28;20023;-49
2022/11/28 03:43:16;;;;;;;4.00;2.63;;;13.80;98.00;;;;;;5111064;28;20032;-46
2022/11/28 03:45:47;;;;;;;4.95;3.10;;;13.40;98.30;;;;;;5111039;28;20119;-47
2022/11/28 03:48:23;;;;;;;3.80;2.65;;;12.90;99.00;;;;;;5110550;28;20024;-47
2022/11/28 03:51:05;;;;;;;3.47;2.78;;;12.30;99.70;;;;;;5111109;28;20028;-49
2022/11/28 03:53:55;;;;;;;4.10;2.95;;;11.80;99.90;;;;;;5110933;28;20081;-47
2022/11/28 03:56:33;;;;;;;5.00;2.85;;;11.60;99.90;;;;;;5110888;28;20084;-47
2022/11/28 03:59:23;;;;;;;3.97;2.97;;;11.20;99.90;;;;;;5110452;28;20461;-47
2022/11/28 04:02:36;;;;;;;4.30;2.92;;;11.00;99.90;;;;;;5110824;28;20024;-50
2022/11/28 04:05:21;;;;;;;4.07;2.85;;;11.40;99.90;;;;;;5068027;28;20474;-48
2022/11/28 04:07:57;;;;;;;3.55;2.80;;;13.20;99.90;;;;;;5110900;28;20473;-47
2022/11/28 04:10:35;;;;;;;3.80;2.85;;;14.10;98.20;;;;;;5110817;28;20433;-47
2022/11/28 04:13:48;;;;;;;5.18;2.90;;;14.00;97.70;;;;;;5110917;28;20019;-45
2022/11/28 04:16:17;;;;;;;3.45;2.53;;;13.50;98.10;;;;;;5087036;28;20374;-48
2022/11/28 04:19:01;;;;;;;4.05;2.53;;;12.80;98.90;;;;;;5113303;28;20027;-47
2022/11/28 04:21:33;;;;;;;3.35;2.60;;;12.30;99.70;;;;;;5114185;28;20031;-47
2022/11/28 04:24:03;;;;;;;3.63;2.65;;;11.80;99.90;;;;;;5114458;28;20080;-47
2022/11/28 04:26:35;;;;;;;4.93;3.25;;;11.50;99.90;;;;;;5114361;27;20015;-46
2022/11/28 04:29:06;;;;;;;3.95;2.80;;;11.20;99.90;;;;;;5113572;28;20051;-49
2022/11/28 04:31:32;;;;;;;4.47;3.15;;;11.10;99.90;;;;;;5114255;28;20488;-47
2022/11/28 04:34:03;;;;;;;3.97;2.85;;;11.10;99.90;;;;;;5114187;28;20118;-45
2022/11/28 04:36:30;;;;;;;4.13;2.95;;;12.40;99.90;;;;;;5114111;27;20073;-48
2022/11/28 04:38:57;;;;;;;4.07;2.70;;;13.90;99.00;;;;;;5113418;28;20027;-47
2022/11/28 04:41:38;;;;;;;3.88;2.42;;;14.20;97.80;;;;;;5112511;28;20020;-47
2022/11/28 04:44:27;;;;;;;3.45;2.40;;;13.90;97.70;;;;;;5113930;28;20031;-47
2022/11/28 04:46:55;;;;;;;3.67;2.83;;;13.20;98.30;;;;;;5114270;28;20110;-47
2022/11/28 04:49:22;;;;;;;3.80;2.90;;;12.70;99.10;;;;;;5113333;28;20027;-47
2022/11/28 04:52:19;;;;;;;4.13;2.83;;;12.20;99.80;;;;;;5113676;28;20027;-47
2022/11/28 04:54:53;;;;;;;3.85;2.60;;;11.80;99.90;;;;;;5113878;28;20028;-47
2022/11/28 04:57:29;;;;;;;4.20;2.63;;;11.40;99.90;;;;;;5113975;28;20041;-47
2022/11/28 04:59:55;;;;;;;4.60;2.67;;;11.20;99.90;;;;;;5113061;28;20503;-47
2022/11/28 05:02:22;;;;;;;3.90;2.70;;;11.00;99.90;;;;;;5113557;28;20059;-47
2022/11/28 05:04:51;;;;;;;4.38;2.70;;;11.30;99.90;;;;;;5113772;28;20094;-48
2022/11/28 05:07:17;;;;;;;3.85;2.58;;;12.90;99.90;;;;;;5113400;28;20028;-48
2022/11/28 05:09:42;;;;;;;5.05;2.53;;;14.00;98.50;;;;;;5112986;28;20098;-47
2022/11/28 05:12:08;;;;;;;4.93;2.72;;;14.00;97.70;;;;;;5113435;28;20108;-49
2022/11/28 05:14:34;;;;;;;3.63;2.30;;;13.60;97.90;;;;;;5113216;28;20047;-46
2022/11/28 05:16:59;;;;;;;4.32;2.88;;;13.20;98.40;;;;;;5113275;28;20031;-47
2022/11/28 05:19:25;;;;;;;4.70;2.70;;;12.60;99.10;;;;;;5112971;28;20031;-47
2022/11/28 05:21:52;;;;;;;7.72;2.70;;;12.10;99.80;;;;;;5113260;28;20469;-48
2022/11/28 05:24:18;;;;;;;5.07;2.80;;;11.70;99.90;;;;;;5113637;28;20362;-49
2022/11/28 05:26:43;;;;;;;3.40;2.70;;;11.50;99.90;;;;;;5113065;28;20029;-47
2022/11/28 05:29:09;;;;;;;4.70;2.97;;;11.20;99.90;;;;;;5111920;28;20019;-48
2022/11/28 05:31:36;;;;;;;4.30;3.22;;;11.00;99.90;;;;;;5113058;28;20081;-45
2022/11/28 05:34:01;;;;;;;6.93;2.75;;;11.10;99.90;;;;;;5112994;28;20019;-47
2022/11/28 05:36:27;;;;;;;3.85;2.80;;;12.40;99.90;;;;;;5112892;28;20380;-48
2022/11/28 05:38:53;;;;;;;3.97;2.72;;;13.90;99.00;;;;;;5112230;28;20053;-46
2022/11/28 05:41:30;;;;;;;3.30;2.63;;;14.30;97.60;;;;;;5112965;28;20297;-47
2022/11/28 05:43:57;;;;;;;3.92;2.80;;;14.00;97.50;;;;;;5112690;28;20112;-47
2022/11/28 05:46:24;;;;;;;3.85;2.85;;;13.40;98.00;;;;;;5113030;28;20031;-47
2022/11/28 05:48:50;;;;;;;4.80;2.80;;;12.90;98.70;;;;;;5112162;28;20027;-46
2022/11/28 05:51:16;;;;;;;4.72;2.70;;;12.40;99.40;;;;;;5112988;28;20011;-49
2022/11/28 05:53:42;;;;;;;2.95;2.33;;;11.90;99.90;;;;;;5112625;28;20032;-49
2022/11/28 05:56:11;;;;;;;3.67;2.65;;;11.60;99.90;;;;;;5112342;28;20431;-47
2022/11/28 05:58:37;;;;;;;3.92;2.92;;;11.30;99.90;;;;;;5112157;28;20076;-48
2022/11/28 06:01:12;;;;;;;6.75;2.80;;;11.10;99.90;;;;;;5112438;28;20031;-47
2022/11/28 06:03:38;;;;;;;4.10;2.58;;;11.00;99.90;;;;;;5112431;28;20024;-47
2022/11/28 06:06:04;;;;;;;3.60;2.88;;;12.00;99.90;;;;;;5112315;28;20024;-47
2022/11/28 06:08:29;;;;;;;5.05;2.70;;;13.70;99.40;;;;;;5111809;28;20024;-47
2022/11/28 06:10:57;;;;;;;4.28;2.40;;;14.20;97.70;;;;;;5112145;28;20422;-49
2022/11/28 06:13:22;;;;;;;4.18;2.90;;;14.00;97.80;;;;;;5112170;28;20031;-48
2022/11/28 06:15:48;;;;;;;3.53;2.55;;;13.50;97.90;;;;;;5112170;28;20505;-47
2022/11/28 06:18:14;;;;;;;3.92;2.65;;;13.00;98.50;;;;;;5111637;28;20027;-47
2022/11/28 06:20:40;;;;;;;4.93;2.65;;;12.40;99.20;;;;;;5112187;28;20042;-46
2022/11/28 06:23:05;;;;;;;3.63;2.67;;;12.00;99.90;;;;;;5112070;28;20457;-47
2022/11/28 06:25:31;;;;;;;6.05;2.88;;;11.60;99.90;;;;;;5111821;28;20053;-50
2022/11/28 06:27:56;;;;;;;4.85;3.00;;;11.40;99.90;;;;;;5111567;27;20016;-47
2022/11/28 06:30:22;;;;;;;3.83;2.75;;;11.10;99.90;;;;;;5111937;28;20016;-47
2022/11/28 06:32:48;;;;;;;3.55;2.60;;;10.90;99.90;;;;;;5111885;28;20362;-48
2022/11/28 06:35:13;;;;;;;3.65;2.42;;;11.60;99.90;;;;;;5111866;28;20031;-48
2022/11/28 06:37:39;;;;;;;3.63;2.50;;;13.10;99.90;;;;;;5111691;28;20446;-47
2022/11/28 06:40:05;;;;;;;4.43;2.60;;;14.10;98.10;;;;;;5110413;28;20525;-47
2022/11/28 06:42:33;;;;;;;3.72;2.55;;;14.10;97.40;;;;;;5111770;28;20419;-47
2022/11/28 06:44:58;;;;;;;3.67;2.70;;;13.70;97.70;;;;;;5111965;28;20454;-47
2022/11/28 06:47:24;;;;;;;4.20;2.90;;;13.10;98.20;;;;;;5111845;28;20476;-49
2022/11/28 06:49:49;;;;;;;4.80;2.75;;;12.60;98.90;;;;;;5111233;28;20031;-45
2022/11/28 06:52:15;;;;;;;5.07;3.05;;;12.10;99.70;;;;;;5111636;28;20374;-47
2022/11/28 06:54:41;;;;;;;3.15;2.40;;;11.70;99.90;;;;;;5111506;28;20015;-47
2022/11/28 06:57:07;;;;;;;4.80;2.75;;;11.40;99.90;;;;;;5111445;28;20091;-47
2022/11/28 06:59:32;;;;;;;4.97;2.75;;;11.10;99.90;;;;;;5110985;28;20511;-50
2022/11/28 07:02:01;;;;;;;6.75;2.88;;;11.00;99.90;;;;;;5111511;28;20080;-47
2022/11/28 07:04:27;;;;;;;3.85;2.63;;;10.80;99.90;;;;;;5111356;28;20020;-47
2022/11/28 07:06:52;;;;;;;4.47;2.80;;;10.70;99.90;;;;;;5111408;28;20085;-47
2022/11/28 07:09:18;;;;;;;3.78;2.70;;;10.60;99.90;;;;;;5110750;28;20023;-47
2022/11/28 07:11:44;;;;;;;3.33;2.47;;;10.50;99.90;;;;;;5111337;28;20092;-47
2022/11/28 07:14:09;;;;;;;6.05;3.10;;;10.40;99.90;;;;;;5111548;28;20020;-47
2022/11/28 07:16:36;;;;;;;6.43;3.13;;;10.40;99.90;;;;;;5111627;28;20145;-49
2022/11/28 07:19:03;;;;;;;4.35;3.05;;;10.30;99.90;;;;;;5110856;28;20099;-45
2022/11/28 07:21:29;;;;;;;4.07;2.90;;;10.30;99.90;;;;;;5111259;28;20098;-47
2022/11/28 07:23:57;;;;;;;4.05;2.97;;;10.20;99.90;;;;;;5109869;28;20030;-46
2022/11/28 07:26:23;;;;;;;5.13;3.17;;;10.20;99.90;;;;;;5111183;28;20473;-47
2022/11/28 07:28:49;;;;;;;4.07;2.67;;;10.20;99.90;;;;;;5110666;28;20035;-47
2022/11/28 07:31:18;;;;;;;5.00;2.88;;;10.20;99.90;;;;;;5111207;28;20020;-46
2022/11/28 07:33:45;;;;;;;4.53;3.10;;;10.10;99.90;;;;;;5111229;28;20038;-47
2022/11/28 07:36:16;;;;;;;4.63;2.78;;;10.10;99.90;;;;;;5110485;28;20028;-47
2022/11/28 07:38:46;;;;;;;4.30;2.72;;;10.10;99.90;;;;;;5110543;28;20472;-47
2022/11/28 07:41:12;;;;;;;5.43;3.10;;;10.10;99.90;;;;;;5111030;28;20039;-46
2022/11/28 07:43:39;;;;;;;4.78;2.75;;;10.10;99.90;;;;;;5111046;28;20034;-49
2022/11/28 07:46:07;;;;;;;5.93;2.80;;;10.10;99.90;;;;;;5109738;28;20030;-47
2022/11/28 07:48:34;;;;;;;5.18;3.55;;;10.10;99.90;;;;;;5110620;28;20028;-47
2022/11/28 07:51:13;;;;;;;4.13;2.88;;;10.10;99.90;;;;;;5111560;28;20374;-47
2022/11/28 07:53:40;;;;;;;6.40;3.20;;;10.10;99.90;;;;;;5115080;28;20486;-47
2022/11/28 07:56:11;;;;;;;4.53;2.95;;;10.10;99.90;;;;;;5114856;28;20028;-50
2022/11/28 07:58:37;;;;;;;5.07;3.28;;;10.10;99.90;;;;;;5114440;28;20031;-48
2022/11/28 08:01:18;;;;;;;4.57;2.92;;;10.10;99.90;;;;;;5115251;28;20492;-47
2022/11/28 08:03:44;;;;;;;5.28;3.10;;;10.00;99.90;;;;;;5114693;28;20114;-47
2022/11/28 08:06:10;;;;;;;4.45;2.90;;;10.00;99.90;;;;;;5114700;28;20027;-47
2022/11/28 08:08:36;;;;;;;4.28;2.90;;;10.00;99.90;;;;;;5114245;28;20019;-47
2022/11/28 08:11:04;;;;;;;4.95;3.10;;;10.00;99.90;;;;;;5114836;28;20565;-47
2022/11/28 08:13:30;;;;;;;5.70;3.17;;;10.00;99.90;;;;;;5114646;28;20240;-47
2022/11/28 08:15:55;;;;;;;3.80;2.80;;;10.00;99.90;;;;;;5114518;28;20096;-51
2022/11/28 08:18:21;;;;;;;4.55;3.15;;;10.00;99.90;;;;;;5114311;28;20038;-45
2022/11/28 08:20:47;;;;;;;4.68;2.92;;;10.00;99.90;;;;;;5114497;28;20069;-46
2022/11/28 08:23:13;;;;;;;5.28;3.15;;;10.00;99.90;;;;;;5114351;28;20051;-47
2022/11/28 08:25:39;;;;;;;5.28;3.08;;;10.00;99.90;;;;;;5114262;28;20472;-47
2022/11/28 08:28:04;;;;;;;3.45;2.80;;;10.00;99.90;;;;;;5113804;28;20020;-47
2022/11/28 08:30:30;;;;;;;4.07;2.88;;;10.00;99.90;;;;;;5114641;28;20032;-48
2022/11/28 08:32:56;;;;;;;3.60;2.80;;;10.00;99.90;;;;;;5114103;28;20497;-47
2022/11/28 08:35:22;;;;;;;4.95;3.20;;;10.00;99.90;;;;;;5113494;28;20464;-47
2022/11/28 08:37:47;;;;;;;5.85;3.40;;;10.00;99.90;;;;;;5113807;28;20081;-47
2022/11/28 08:40:13;;;;;;;5.28;2.97;;;10.00;99.90;;;;;;5113652;28;20035;-49
2022/11/28 08:42:39;;;;;;;4.55;3.20;;;10.00;99.90;;;;;;5113918;27;20077;-47
2022/11/28 08:45:06;;;;;;;6.40;3.50;;;10.00;99.90;;;;;;5113790;27;20024;-47
2022/11/28 08:47:32;;;;;;;6.97;3.53;;;10.00;99.90;;;;;;5113772;28;20430;-47
2022/11/28 08:49:57;;;;;;;6.70;3.58;;;10.00;99.90;;;;;;5113478;28;20024;-46
2022/11/28 08:52:24;;;;;;;5.30;3.08;;;10.00;99.90;;;;;;5113851;28;20686;-48
2022/11/28 08:54:50;;;;;;;8.25;3.65;;;10.00;99.90;;;;;;5113908;28;20092;-47
2022/11/28 08:57:16;;;;;;;4.53;3.50;;;10.00;99.90;;;;;;5113627;28;20393;-47
2022/11/28 08:59:41;;;;;;;5.78;3.45;;;10.00;99.90;;;;;;5113096;28;20031;-50
2022/11/28 09:02:11;;;;;;;5.35;3.58;;;10.00;99.90;;;;;;5113632;28;20483;-45
2022/11/28 09:04:37;;;;;;;5.70;3.67;;;10.00;99.90;;;;;;5113009;28;20091;-45
2022/11/28 09:07:02;;;;;;;4.80;3.47;;;10.00;99.90;;;;;;5112299;28;20092;-47
2022/11/28 09:09:28;;;;;;;4.43;3.30;;;10.00;99.90;;;;;;5112994;28;20020;-48
2022/11/28 09:11:54;;;;;;;4.65;3.22;;;10.00;99.90;;;;;;5113906;28;20114;-49
2022/11/28 09:14:20;;;;;;;4.93;3.05;;;10.00;99.90;;;;;;5113364;28;20232;-47
2022/11/28 09:16:45;;;;;;;4.60;3.17;;;10.00;99.90;;;;;;5113344;28;20031;-47
2022/11/28 09:19:11;;;;;;;4.60;3.15;;;10.00;99.90;;;;;;5112797;28;20028;-47
2022/11/28 09:21:37;;;;;;;4.60;3.20;;;10.00;99.90;;;;;;5113018;28;20110;-47
2022/11/28 09:24:03;;;;;;;4.60;3.20;;;10.00;99.90;;;;;;5113121;28;20027;-47
2022/11/28 09:26:29;;;;;;;5.50;3.50;;;10.00;99.90;;;;;;5113096;28;20019;-49
2022/11/28 09:28:54;;;;;;;5.25;3.53;;;10.00;99.90;;;;;;5112514;28;20019;-47
2022/11/28 09:31:20;;;;;;;4.72;3.08;;;10.00;99.90;;;;;;5113355;28;20357;-45
2022/11/28 09:33:47;;;;;;;6.53;3.38;;;10.00;99.90;;;;;;5113017;28;20030;-45
2022/11/28 09:36:16;;;;;;;5.47;3.03;;;10.00;99.90;;;;;;5112875;28;20081;-47
2022/11/28 09:38:42;;;;;;;5.13;3.00;;;10.00;99.90;;;;;;5112249;28;20042;-47
2022/11/28 09:41:39;;;;;;;5.10;3.15;;;10.00;99.90;;;;;;5112921;27;20451;-47
2022/11/28 09:44:17;;;;;;;5.00;3.10;;;10.00;99.90;;;;;;5097998;28;20042;-47
2022/11/28 09:46:45;;;;;;;4.22;2.95;;;10.00;99.90;;;;;;5112711;28;20027;-47
2022/11/28 09:49:39;;;;;;;4.43;3.13;;;10.00;99.90;;;;;;5112041;28;20519;-47
2022/11/28 09:52:11;;;;;;;4.70;2.95;;;10.00;99.90;;;;;;5111416;28;20088;-47
2022/11/28 09:54:56;;;;;;;7.07;3.30;;;10.00;99.90;;;;;;5112642;28;20613;-45
2022/11/28 09:57:44;;;;;;;5.35;3.08;;;10.00;99.90;;;;;;5112347;28;20025;-47
2022/11/28 10:00:20;;;;;;;5.25;3.30;;;10.00;99.90;;;;;;5112212;28;20555;-47
2022/11/28 10:03:00;;;;;;;6.55;3.22;;;10.00;99.90;;;;;;5112450;28;20501;-45
2022/11/28 10:05:46;;;;;;;4.45;2.80;;;10.00;99.90;;;;;;5112436;28;20370;-49
2022/11/28 10:08:42;;;;;;;5.72;3.10;;;10.00;99.90;;;;;;5111863;28;20019;-46
2022/11/28 10:11:26;;;;;;;5.55;3.40;;;10.00;99.90;;;;;;5112385;28;20106;-47
2022/11/28 10:14:19;;;;;;;5.45;3.03;;;10.00;99.90;;;;;;5112614;28;20460;-47
2022/11/28 10:17:16;;;;;;;4.25;2.97;;;10.00;99.90;;;;;;5112175;28;20015;-51
2022/11/28 10:19:54;;;;;;;4.85;3.20;;;10.00;99.90;;;;;;5111701;28;20062;-47
2022/11/28 10:22:43;;;;;;;4.80;2.75;;;10.00;99.90;;;;;;5112019;28;20054;-47
2022/11/28 10:25:25;;;;;;;4.80;3.03;;;10.00;99.90;;;;;;5104353;28;20061;-47
2022/11/28 10:27:50;;;;;;;4.20;2.90;;;10.00;99.90;;;;;;5111813;28;20488;-45
2022/11/28 10:30:25;;;;;;;3.90;2.92;;;10.00;99.90;;;;;;5111746;28;20049;-47
2022/11/28 10:33:08;;;;;;;5.47;3.38;;;10.00;99.90;;;;;;5111800;28;20061;-46
2022/11/28 10:35:54;;;;;;;5.03;2.90;;;10.00;99.90;;;;;;5111903;28;20066;-47
2022/11/28 10:38:24;;;;;;;4.80;3.08;;;10.00;99.90;;;;;;5111460;28;20382;-47
2022/11/28 10:41:15;;;;;;;4.20;2.80;;;10.00;99.90;;;;;;5111719;28;20035;-47
2022/11/28 10:43:42;;;;;;;3.72;2.80;;;10.00;99.90;;;;;;5111792;28;20027;-47
2022/11/28 10:46:48;;;;;;;4.05;3.28;;;10.00;99.90;;;;;;5111871;28;20082;-45
2022/11/28 10:49:27;;;;;;;6.60;2.83;;;10.00;99.90;;;;;;5110763;28;20107;-50
2022/11/28 10:52:28;;;;;;;4.70;3.13;;;10.00;99.90;;;;;;5111613;28;20020;-47
2022/11/28 10:55:01;;;;;;;3.47;2.58;;;10.00;99.90;;;;;;5111686;28;20024;-50
2022/11/28 10:57:30;;;;;;;4.07;2.95;;;10.00;99.90;;;;;;5111534;28;20023;-47
2022/11/28 11:00:02;;;;;;;5.15;2.85;;;10.00;99.90;;;;;;5111495;28;20055;-49
2022/11/28 11:02:50;;;;;;;4.45;2.95;;;10.00;99.90;;;;;;5111585;28;20028;-47
2022/11/28 11:05:28;;;;;;;5.03;3.15;;;10.00;99.90;;;;;;5111503;28;20509;-50
2022/11/28 11:08:16;;;;;;;4.78;2.80;;;10.00;99.90;;;;;;5111087;28;20392;-49
2022/11/28 11:10:50;;;;;;;3.33;2.35;;;10.00;99.90;;;;;;5111159;28;20327;-45
2022/11/28 11:13:22;;;;;;;4.25;2.50;;;10.00;99.90;;;;;;5111528;28;20028;-45
2022/11/28 11:15:58;;;;;;;4.80;3.00;;;10.00;99.90;;;;;;5111459;28;20472;-47
2022/11/28 11:18:31;;;;;;;4.15;2.70;;;10.00;99.90;;;;;;5111021;28;20365;-47
2022/11/28 11:21:08;;;;;;;4.30;2.77;;;10.00;99.90;;;;;;5111353;28;20039;-49
2022/11/28 11:23:34;;;;;;;4.20;2.70;;;10.00;99.90;;;;;;5111284;28;20292;-47
2022/11/28 11:26:00;;;;;;;4.93;2.92;;;10.00;99.90;;;;;;5111799;28;20028;-46
2022/11/28 11:28:44;;;;;;;4.22;2.95;;;10.00;99.90;;;;;;5115055;27;20024;-47
2022/11/28 11:31:42;;;;;;;4.40;2.97;;;10.00;99.90;;;;;;5115524;28;20072;-48
2022/11/28 11:34:20;;;;;;;3.72;2.80;;;10.00;99.90;;;;;;5112433;27;20039;-47
2022/11/28 11:36:45;;;;;;;4.78;2.67;;;10.00;99.90;;;;;;5114572;27;20031;-47
2022/11/28 11:39:11;;;;;;;4.60;2.40;;;10.00;99.90;;;;;;5114764;28;20073;-45
2022/11/28 11:41:42;;;;;;;3.67;2.63;;;10.00;99.90;;;;;;5114085;28;20095;-47
2022/11/28 11:44:13;;;;;;;4.55;2.58;;;10.00;99.90;;;;;;5115260;27;20051;-46
2022/11/28 11:46:52;;;;;;;4.57;2.83;;;10.00;99.90;;;;;;5115128;28;20051;-47
2022/11/28 11:49:31;;;;;;;3.75;2.50;;;10.00;99.90;;;;;;5114447;28;20384;-47
2022/11/28 11:52:03;;;;;;;4.60;2.63;;;10.00;99.90;;;;;;5115103;28;20020;-47
2022/11/28 11:54:29;;;;;;;5.80;2.63;;;10.00;99.90;;;;;;5115248;28;20107;-47
2022/11/28 11:56:57;;;;;;;3.70;2.30;;;10.00;99.90;;;;;;5114832;28;20452;-47
2022/11/28 11:59:32;;;;;;;4.43;2.58;;;10.00;99.90;;;;;;5114379;28;20495;-50
2022/11/28 12:02:19;;;;;;;3.85;2.53;;;10.10;99.90;;;;;;5114895;28;20024;-45
2022/11/28 12:04:51;;;;;;;5.60;3.08;;;10.00;99.90;;;;;;5114827;28;20127;-47
2022/11/28 12:07:25;;;;;;;4.07;2.70;;;10.00;99.90;;;;;;5114669;27;20024;-47
2022/11/28 12:09:52;;;;;;;5.78;2.60;;;10.10;99.90;;;;;;5114298;28;20034;-47
2022/11/28 12:12:28;;;;;;;4.03;2.70;;;10.10;99.90;;;;;;5114595;28;20536;-47
2022/11/28 12:14:54;;;;;;;4.25;2.63;;;10.00;99.90;;;;;;5114810;28;20054;-48
2022/11/28 12:17:37;;;;;;;4.75;2.33;;;10.10;99.90;;;;;;5115016;28;20401;-47
2022/11/28 12:20:29;;;;;;;5.13;3.00;;;10.10;99.90;;;;;;5114168;28;20028;-47
2022/11/28 12:23:13;;;;;;;3.30;2.40;;;10.00;99.90;;;;;;5114534;28;20035;-50
2022/11/28 12:25:51;;;;;;;5.57;3.22;;;10.10;99.90;;;;;;5114509;28;20024;-47
2022/11/28 12:28:42;;;;;;;3.78;2.65;;;10.10;99.90;;;;;;5112599;28;20024;-47
2022/11/28 12:31:10;;;;;;;4.40;2.80;;;10.00;99.90;;;;;;5114357;28;20072;-47
2022/11/28 12:33:40;;;;;;;3.97;2.50;;;10.10;99.90;;;;;;5114164;28;20441;-48
2022/11/28 12:36:15;;;;;;;3.50;2.60;;;10.10;99.90;;;;;;5113527;28;20081;-47
2022/11/28 12:39:09;;;;;;;4.47;2.70;;;10.10;99.90;;;;;;5112325;28;20112;-49
2022/11/28 12:41:59;;;;;;;3.47;2.55;;;10.10;99.90;;;;;;5114151;28;20027;-48
2022/11/28 12:44:41;;;;;;;2.95;2.15;;;10.00;99.90;;;;;;5114117;28;20104;-47
2022/11/28 12:47:15;;;;;;;3.25;2.13;;;10.10;99.90;;;;;;5113808;28;20492;-49
2022/11/28 12:50:00;;;;;;;3.33;2.47;;;10.10;99.90;;;;;;5113515;28;20035;-47
2022/11/28 12:52:43;;;;;;;4.07;2.50;;;10.10;99.90;;;;;;5113992;28;20024;-47
2022/11/28 12:55:47;;;;;;;3.55;2.63;;;10.00;99.90;;;;;;5113868;28;20411;-47
2022/11/28 12:58:23;;;;;;;4.15;2.40;;;10.00;99.90;;;;;;5113316;28;20027;-45
2022/11/28 13:01:30;;;;;;;4.30;2.70;;;10.10;99.90;;;;;;5113757;28;20469;-47
2022/11/28 13:04:14;;;;;;;3.83;2.30;;;10.10;99.90;;;;;;5089780;28;20048;-47
2022/11/28 13:06:53;;;;;;;4.68;2.55;;;10.00;99.90;;;;;;5113865;28;20026;-47
2022/11/28 13:09:46;;;;;;;4.13;2.70;;;10.00;99.90;;;;;;5113093;28;20076;-47
2022/11/28 13:12:39;;;;;;;4.47;2.78;;;10.00;99.90;;;;;;5113442;28;20503;-47
2022/11/28 13:15:36;;;;;;;4.80;2.90;;;10.00;99.90;;;;;;5113608;28;20035;-45